createdAt,value
2017-09-05T00:00:12.148Z,96
2017-09-05T00:01:14.568Z,96
2017-09-05T00:02:16.984Z,96
2017-09-05T00:03:19.403Z,97
2017-09-05T00:04:21.822Z,97
2017-09-05T00:05:24.240Z,97
2017-09-05T00:06:26.657Z,97
2017-09-05T00:07:29.082Z,97
2017-09-05T00:08:31.510Z,97
2017-09-05T00:09:33.936Z,97
2017-09-05T00:10:36.354Z,97
2017-09-05T00:11:38.777Z,96
2017-09-05T00:12:41.191Z,96
2017-09-05T00:13:43.654Z,96
2017-09-05T00:14:46.049Z,96
2017-09-05T00:15:48.459Z,96
2017-09-05T00:16:50.879Z,96
2017-09-05T00:17:53.307Z,96
2017-09-05T00:18:55.728Z,96
2017-09-05T00:19:58.155Z,96
2017-09-05T00:21:00.585Z,96
2017-09-05T00:22:02.999Z,96
2017-09-05T00:23:05.426Z,96
2017-09-05T00:24:07.849Z,96
2017-09-05T00:25:10.259Z,96
2017-09-05T00:26:12.688Z,96
2017-09-05T00:27:15.117Z,96
2017-09-05T00:28:17.545Z,96
2017-09-05T00:29:19.960Z,96
2017-09-05T00:30:22.378Z,96
2017-09-05T00:31:24.798Z,96
2017-09-05T00:32:27.228Z,96
2017-09-05T00:33:29.644Z,96
2017-09-05T00:34:32.061Z,96
2017-09-05T00:35:34.491Z,96
2017-09-05T00:36:36.915Z,96
2017-09-05T00:37:39.338Z,96
2017-09-05T00:38:41.761Z,96
2017-09-05T00:39:44.194Z,96
2017-09-05T00:40:46.611Z,96
2017-09-05T00:41:49.372Z,96
2017-09-05T00:42:51.792Z,96
2017-09-05T00:43:54.218Z,96
2017-09-05T00:44:56.634Z,97
2017-09-05T00:45:59.057Z,97
2017-09-05T00:47:01.472Z,97
2017-09-05T00:48:03.899Z,97
2017-09-05T00:49:06.324Z,97
2017-09-05T00:50:08.752Z,97
2017-09-05T00:51:11.165Z,97
2017-09-05T00:52:13.588Z,96
2017-09-05T00:53:16.352Z,96
2017-09-05T00:54:18.766Z,96
2017-09-05T00:55:21.193Z,96
2017-09-05T00:56:23.611Z,96
2017-09-05T00:57:26.024Z,96
2017-09-05T00:58:28.461Z,96
2017-09-05T00:59:30.885Z,96
2017-09-05T01:00:33.308Z,96
2017-09-05T01:01:35.731Z,96
2017-09-05T01:02:38.150Z,96
2017-09-05T01:03:40.573Z,96
2017-09-05T01:04:43.019Z,96
2017-09-05T01:05:45.446Z,96
2017-09-05T01:06:47.887Z,96
2017-09-05T01:07:50.282Z,96
2017-09-05T01:08:52.702Z,96
2017-09-05T01:09:55.126Z,96
2017-09-05T01:10:57.542Z,96
2017-09-05T01:11:59.968Z,96
2017-09-05T01:13:02.395Z,96
2017-09-05T01:14:04.808Z,96
2017-09-05T01:15:07.234Z,96
2017-09-05T01:16:09.654Z,96
2017-09-05T01:17:12.067Z,96
2017-09-05T01:18:14.494Z,96
2017-09-05T01:19:16.922Z,96
2017-09-05T01:20:19.681Z,97
2017-09-05T01:21:22.112Z,97
2017-09-05T01:22:24.529Z,97
2017-09-05T01:23:26.948Z,97
2017-09-05T01:24:29.375Z,97
2017-09-05T01:25:31.793Z,97
2017-09-05T01:26:34.210Z,97
2017-09-05T01:27:36.633Z,97
2017-09-05T01:28:39.051Z,97
2017-09-05T01:29:41.473Z,97
2017-09-05T01:30:43.905Z,97
2017-09-05T01:31:46.312Z,97
2017-09-05T01:32:48.735Z,97
2017-09-05T01:33:51.166Z,97
2017-09-05T01:34:53.588Z,97
2017-09-05T01:35:56.006Z,97
2017-09-05T01:36:58.438Z,97
2017-09-05T01:38:00.854Z,97
2017-09-05T01:39:03.271Z,97
2017-09-05T01:40:05.690Z,97
2017-09-05T01:41:08.114Z,97
2017-09-05T01:42:10.539Z,97
2017-09-05T01:43:12.962Z,97
2017-09-05T01:44:15.385Z,97
2017-09-05T01:45:17.810Z,97
2017-09-05T01:46:20.227Z,97
2017-09-05T01:47:22.656Z,97
2017-09-05T01:48:25.065Z,97
2017-09-05T01:49:27.485Z,97
2017-09-05T01:50:29.913Z,97
2017-09-05T01:51:32.331Z,97
2017-09-05T01:52:35.087Z,97
2017-09-05T01:53:37.502Z,97
2017-09-05T01:54:39.915Z,97
2017-09-05T01:55:42.347Z,97
2017-09-05T01:56:44.762Z,97
2017-09-05T01:57:47.174Z,97
2017-09-05T01:58:49.605Z,97
2017-09-05T01:59:52.031Z,97
2017-09-05T02:00:54.452Z,97
2017-09-05T02:01:57.222Z,97
2017-09-05T02:02:59.642Z,97
2017-09-05T02:04:02.405Z,97
2017-09-05T02:05:04.840Z,97
2017-09-05T02:06:07.262Z,97
2017-09-05T02:07:09.681Z,97
2017-09-05T02:08:12.439Z,97
2017-09-05T02:09:14.894Z,97
2017-09-05T02:10:17.275Z,97
2017-09-05T02:11:19.694Z,97
2017-09-05T02:12:22.125Z,97
2017-09-05T02:13:24.541Z,97
2017-09-05T02:14:26.968Z,97
2017-09-05T02:15:29.394Z,97
2017-09-05T02:16:31.815Z,97
2017-09-05T02:17:34.234Z,97
2017-09-05T02:18:36.661Z,97
2017-09-05T02:19:39.071Z,97
2017-09-05T02:20:41.497Z,97
2017-09-05T02:21:43.909Z,97
2017-09-05T02:22:46.666Z,97
2017-09-05T02:23:49.095Z,97
2017-09-05T02:24:51.517Z,97
2017-09-05T02:25:53.940Z,97
2017-09-05T02:26:56.365Z,97
2017-09-05T02:27:58.791Z,97
2017-09-05T02:29:01.217Z,97
2017-09-05T02:30:03.638Z,97
2017-09-05T02:31:06.049Z,97
2017-09-05T02:32:08.814Z,97
2017-09-05T02:33:11.232Z,97
2017-09-05T02:34:13.654Z,97
2017-09-05T02:35:16.068Z,97
2017-09-05T02:36:18.498Z,97
2017-09-05T02:37:20.916Z,97
2017-09-05T02:38:23.334Z,97
2017-09-05T02:39:26.099Z,98
2017-09-05T02:40:28.522Z,98
2017-09-05T02:41:30.950Z,98
2017-09-05T02:42:33.374Z,97
2017-09-05T02:43:35.787Z,98
2017-09-05T02:44:38.210Z,97
2017-09-05T02:45:40.645Z,97
2017-09-05T02:46:43.066Z,97
2017-09-05T02:47:45.483Z,97
2017-09-05T02:48:47.902Z,97
2017-09-05T02:49:50.323Z,97
2017-09-05T02:50:52.746Z,97
2017-09-05T02:51:55.164Z,97
2017-09-05T02:52:57.928Z,97
2017-09-05T02:54:00.351Z,97
2017-09-05T02:55:02.774Z,97
2017-09-05T02:56:05.195Z,97
2017-09-05T02:57:07.622Z,97
2017-09-05T02:58:10.044Z,97
2017-09-05T02:59:12.802Z,97
2017-09-05T03:00:15.223Z,98
2017-09-05T03:01:17.983Z,97
2017-09-05T03:02:20.403Z,98
2017-09-05T03:03:22.828Z,98
2017-09-05T03:04:25.245Z,98
2017-09-05T03:05:27.663Z,98
2017-09-05T03:06:30.079Z,98
2017-09-05T03:07:32.504Z,98
2017-09-05T03:08:34.922Z,98
2017-09-05T03:09:37.346Z,98
2017-09-05T03:10:39.768Z,98
2017-09-05T03:11:42.178Z,98
2017-09-05T03:12:44.613Z,98
2017-09-05T03:13:47.033Z,98
2017-09-05T03:14:49.448Z,98
2017-09-05T03:15:51.871Z,98
2017-09-05T03:16:54.288Z,98
2017-09-05T03:17:56.706Z,98
2017-09-05T03:18:59.132Z,98
2017-09-05T03:20:01.544Z,98
2017-09-05T03:21:04.323Z,98
2017-09-05T03:22:07.085Z,98
2017-09-05T03:23:09.505Z,98
2017-09-05T03:24:11.926Z,98
2017-09-05T03:25:14.347Z,98
2017-09-05T03:26:16.757Z,98
2017-09-05T03:27:19.180Z,98
2017-09-05T03:28:21.600Z,98
2017-09-05T03:29:24.020Z,98
2017-09-05T03:30:26.437Z,98
2017-09-05T03:31:28.861Z,98
2017-09-05T03:32:31.284Z,98
2017-09-05T03:33:33.714Z,98
2017-09-05T03:34:36.129Z,98
2017-09-05T03:35:38.554Z,98
2017-09-05T03:36:40.970Z,98
2017-09-05T03:37:43.399Z,98
2017-09-05T03:38:45.820Z,98
2017-09-05T03:39:48.237Z,98
2017-09-05T03:40:50.657Z,98
2017-09-05T03:41:53.418Z,98
2017-09-05T03:42:55.991Z,98
2017-09-05T03:43:58.411Z,98
2017-09-05T03:45:00.829Z,98
2017-09-05T03:46:03.582Z,98
2017-09-05T03:47:06.007Z,98
2017-09-05T03:48:08.431Z,98
2017-09-05T03:49:10.846Z,98
2017-09-05T03:50:13.270Z,98
2017-09-05T03:51:15.697Z,98
2017-09-05T03:52:18.119Z,98
2017-09-05T03:53:20.542Z,98
2017-09-05T03:54:22.956Z,98
2017-09-05T03:55:25.375Z,98
2017-09-05T03:56:27.799Z,98
2017-09-05T03:57:30.225Z,98
2017-09-05T03:58:32.646Z,98
2017-09-05T03:59:35.057Z,98
2017-09-05T04:00:37.479Z,98
2017-09-05T04:01:39.903Z,98
2017-09-05T04:02:42.321Z,98
2017-09-05T04:03:45.081Z,98
2017-09-05T04:04:47.498Z,98
2017-09-05T04:05:49.920Z,98
2017-09-05T04:06:52.345Z,98
2017-09-05T04:07:54.767Z,98
2017-09-05T04:08:57.189Z,98
2017-09-05T04:09:59.606Z,98
2017-09-05T04:11:02.026Z,98
2017-09-05T04:12:04.451Z,98
2017-09-05T04:13:06.865Z,99
2017-09-05T04:14:09.288Z,99
2017-09-05T04:15:11.708Z,99
2017-09-05T04:16:14.135Z,99
2017-09-05T04:17:16.560Z,98
2017-09-05T04:18:18.977Z,98
2017-09-05T04:19:21.399Z,98
2017-09-05T04:20:23.826Z,98
2017-09-05T04:21:26.244Z,98
2017-09-05T04:22:28.661Z,98
2017-09-05T04:23:31.091Z,98
2017-09-05T04:24:33.505Z,98
2017-09-05T04:25:35.932Z,98
2017-09-05T04:26:38.358Z,98
2017-09-05T04:27:40.776Z,98
2017-09-05T04:28:43.905Z,98
2017-09-05T04:29:46.329Z,98
2017-09-05T04:30:48.749Z,98
2017-09-05T04:31:51.174Z,98
2017-09-05T04:32:53.595Z,98
2017-09-05T04:33:56.016Z,98
2017-09-05T04:34:58.431Z,98
2017-09-05T04:36:00.856Z,98
2017-09-05T04:37:03.285Z,98
2017-09-05T04:38:05.702Z,98
2017-09-05T04:39:08.123Z,98
2017-09-05T04:40:10.539Z,98
2017-09-05T04:41:12.956Z,98
2017-09-05T04:42:15.388Z,98
2017-09-05T04:43:17.804Z,98
2017-09-05T04:44:20.216Z,98
2017-09-05T04:45:22.643Z,98
2017-09-05T04:46:25.062Z,98
2017-09-05T04:47:27.475Z,98
2017-09-05T04:48:29.904Z,98
2017-09-05T04:49:32.319Z,98
2017-09-05T04:50:35.083Z,98
2017-09-05T04:51:37.512Z,98
2017-09-05T04:52:39.931Z,98
2017-09-05T04:53:42.348Z,98
2017-09-05T04:54:44.778Z,98
2017-09-05T04:55:47.201Z,98
2017-09-05T04:56:49.632Z,98
2017-09-05T04:57:52.056Z,98
2017-09-05T04:58:54.467Z,98
2017-09-05T04:59:56.898Z,98
2017-09-05T05:00:59.321Z,98
2017-09-05T05:02:01.734Z,98
2017-09-05T05:03:04.157Z,98
2017-09-05T05:04:06.576Z,98
2017-09-05T05:05:09.002Z,98
2017-09-05T05:06:11.777Z,98
2017-09-05T05:07:14.202Z,98
2017-09-05T05:08:16.619Z,98
2017-09-05T05:09:19.039Z,98
2017-09-05T05:10:21.463Z,98
2017-09-05T05:11:23.891Z,98
2017-09-05T05:12:26.314Z,99
2017-09-05T05:13:28.733Z,98
2017-09-05T05:14:31.156Z,98
2017-09-05T05:15:33.590Z,98
2017-09-05T05:16:36.013Z,98
2017-09-05T05:17:38.426Z,98
2017-09-05T05:18:40.851Z,98
2017-09-05T05:19:43.274Z,98
2017-09-05T05:20:45.701Z,98
2017-09-05T05:21:48.124Z,98
2017-09-05T05:22:50.538Z,98
2017-09-05T05:23:52.963Z,98
2017-09-05T05:24:55.394Z,98
2017-09-05T05:25:57.819Z,98
2017-09-05T05:27:00.246Z,98
2017-09-05T05:28:02.661Z,98
2017-09-05T05:29:05.079Z,99
2017-09-05T05:30:07.513Z,99
2017-09-05T05:31:09.933Z,99
2017-09-05T05:32:12.355Z,98
2017-09-05T05:33:14.780Z,98
2017-09-05T05:34:17.217Z,98
2017-09-05T05:35:19.631Z,98
2017-09-05T05:36:22.058Z,98
2017-09-05T05:37:24.817Z,98
2017-09-05T05:38:27.239Z,98
2017-09-05T05:39:29.662Z,98
2017-09-05T05:40:32.094Z,98
2017-09-05T05:41:34.510Z,98
2017-09-05T05:42:36.941Z,98
2017-09-05T05:43:39.368Z,98
2017-09-05T05:44:41.791Z,98
2017-09-05T05:45:44.560Z,98
2017-09-05T05:46:46.979Z,98
2017-09-05T05:47:49.391Z,99
2017-09-05T05:48:51.824Z,98
2017-09-05T05:49:54.241Z,99
2017-09-05T05:50:56.665Z,99
2017-09-05T05:51:59.090Z,99
2017-09-05T05:53:01.512Z,99
2017-09-05T05:54:03.931Z,99
2017-09-05T05:55:06.365Z,99
2017-09-05T05:56:08.786Z,99
2017-09-05T05:57:11.209Z,99
2017-09-05T05:58:13.632Z,99
2017-09-05T05:59:16.057Z,99
2017-09-05T06:00:18.475Z,99
2017-09-05T06:01:20.902Z,99
2017-09-05T06:02:23.333Z,99
2017-09-05T06:03:25.753Z,99
2017-09-05T06:04:28.174Z,99
2017-09-05T06:05:30.605Z,98
2017-09-05T06:06:33.362Z,98
2017-09-05T06:07:35.783Z,98
2017-09-05T06:08:38.211Z,98
2017-09-05T06:09:40.986Z,98
2017-09-05T06:10:43.405Z,99
2017-09-05T06:11:45.834Z,99
2017-09-05T06:12:48.251Z,99
2017-09-05T06:13:50.680Z,99
2017-09-05T06:14:53.109Z,99
2017-09-05T06:15:55.533Z,98
2017-09-05T06:16:57.946Z,98
2017-09-05T06:18:00.372Z,98
2017-09-05T06:19:02.796Z,98
2017-09-05T06:20:05.228Z,98
2017-09-05T06:21:07.646Z,98
2017-09-05T06:22:10.101Z,99
2017-09-05T06:23:12.489Z,99
2017-09-05T06:24:14.918Z,98
2017-09-05T06:25:17.338Z,98
2017-09-05T06:26:20.104Z,99
2017-09-05T06:27:22.532Z,99
2017-09-05T06:28:24.961Z,99
2017-09-05T06:29:27.380Z,99
2017-09-05T06:30:29.815Z,99
2017-09-05T06:31:32.225Z,99
2017-09-05T06:32:34.644Z,99
2017-09-05T06:33:37.069Z,98
2017-09-05T06:34:39.496Z,98
2017-09-05T06:35:41.918Z,98
2017-09-05T06:36:44.348Z,99
2017-09-05T06:37:46.780Z,99
2017-09-05T06:38:49.205Z,99
2017-09-05T06:39:51.636Z,98
2017-09-05T06:40:54.052Z,98
2017-09-05T06:41:56.479Z,98
2017-09-05T06:42:58.909Z,98
2017-09-05T06:44:01.339Z,98
2017-09-05T06:45:03.769Z,98
2017-09-05T06:46:06.194Z,98
2017-09-05T06:47:08.619Z,98
2017-09-05T06:48:11.048Z,98
2017-09-05T06:49:13.474Z,98
2017-09-05T06:50:15.905Z,98
2017-09-05T06:51:18.327Z,98
2017-09-05T06:52:20.752Z,98
2017-09-05T06:53:23.173Z,97
2017-09-05T06:54:25.600Z,97
2017-09-05T06:55:28.026Z,97
2017-09-05T06:56:30.796Z,97
2017-09-05T06:57:33.232Z,97
2017-09-05T06:58:35.663Z,97
2017-09-05T06:59:38.093Z,97
2017-09-05T07:00:40.524Z,97
2017-09-05T07:01:42.964Z,96
2017-09-05T07:02:45.381Z,96
2017-09-05T07:03:47.807Z,95
2017-09-05T07:04:50.240Z,95
2017-09-05T07:05:52.664Z,94
2017-09-05T07:06:55.088Z,94
2017-09-05T07:07:57.526Z,94
2017-09-05T07:08:59.945Z,94
2017-09-05T07:10:02.382Z,94
2017-09-05T07:11:04.812Z,94
2017-09-05T07:12:07.231Z,94
2017-09-05T07:13:09.662Z,94
2017-09-05T07:14:12.439Z,93
2017-09-05T07:15:14.866Z,92
2017-09-05T07:16:17.303Z,91
2017-09-05T07:17:19.735Z,90
2017-09-05T07:18:22.158Z,89
2017-09-05T07:19:24.939Z,89
2017-09-05T07:20:27.364Z,87
2017-09-05T07:21:29.785Z,86
2017-09-05T07:22:32.217Z,86
2017-09-05T07:23:34.654Z,87
2017-09-05T07:24:37.083Z,87
2017-09-05T07:25:39.516Z,87
2017-09-05T07:26:41.942Z,85
2017-09-05T07:27:44.366Z,86
2017-09-05T07:28:47.139Z,87
2017-09-05T07:29:49.574Z,87
2017-09-05T07:30:52.000Z,87
2017-09-05T07:31:54.430Z,87
2017-09-05T07:32:56.859Z,87
2017-09-05T07:33:59.287Z,87
2017-09-05T07:35:01.725Z,86
2017-09-05T07:36:04.165Z,86
2017-09-05T07:37:06.597Z,87
2017-09-05T07:38:09.029Z,87
2017-09-05T07:39:11.464Z,87
2017-09-05T07:40:13.892Z,84
2017-09-05T07:41:16.317Z,83
2017-09-05T07:42:18.751Z,82
2017-09-05T07:43:21.176Z,84
2017-09-05T07:44:23.604Z,84
2017-09-05T07:45:26.037Z,84
2017-09-05T07:46:28.465Z,81
2017-09-05T07:47:30.905Z,77
2017-09-05T07:48:33.338Z,76
2017-09-05T07:49:35.764Z,77
2017-09-05T07:50:38.191Z,78
2017-09-05T07:51:40.633Z,78
2017-09-05T07:52:43.064Z,75
2017-09-05T07:53:45.498Z,75
2017-09-05T07:54:47.921Z,71
2017-09-05T07:55:50.350Z,71
2017-09-05T07:56:52.788Z,70
2017-09-05T07:57:55.219Z,70
2017-09-05T07:58:57.642Z,68
2017-09-05T08:00:00.076Z,68
2017-09-05T08:01:02.510Z,69
2017-09-05T08:02:04.944Z,73
2017-09-05T08:03:07.375Z,73
2017-09-05T08:04:09.810Z,74
2017-09-05T08:05:12.585Z,74
2017-09-05T08:06:15.016Z,75
2017-09-05T08:07:17.452Z,71
2017-09-05T08:08:19.874Z,70
2017-09-05T08:09:22.306Z,69
2017-09-05T08:10:24.737Z,68
2017-09-05T08:11:27.171Z,66
2017-09-05T08:12:29.602Z,69
2017-09-05T08:13:32.033Z,68
2017-09-05T08:14:34.470Z,68
2017-09-05T08:15:36.903Z,68
2017-09-05T08:16:39.343Z,68
2017-09-05T08:17:41.774Z,69
2017-09-05T08:18:44.217Z,70
2017-09-05T08:19:46.653Z,70
2017-09-05T08:20:49.078Z,69
2017-09-05T08:21:51.510Z,62
2017-09-05T08:22:53.948Z,63
2017-09-05T08:23:56.385Z,63
2017-09-05T08:24:59.167Z,63
2017-09-05T08:26:01.607Z,60
2017-09-05T08:27:04.386Z,58
2017-09-05T08:28:06.826Z,56
2017-09-05T08:29:09.264Z,56
2017-09-05T08:30:11.696Z,59
2017-09-05T08:31:14.133Z,63
2017-09-05T08:32:16.566Z,61
2017-09-05T08:33:19.002Z,58
2017-09-05T08:34:21.436Z,62
2017-09-05T08:35:23.877Z,57
2017-09-05T08:36:26.307Z,60
2017-09-05T08:37:28.739Z,62
2017-09-05T08:38:31.508Z,63
2017-09-05T08:39:33.948Z,66
2017-09-05T08:40:36.385Z,62
2017-09-05T08:41:39.171Z,57
2017-09-05T08:42:41.597Z,60
2017-09-05T08:43:44.036Z,64
2017-09-05T08:44:46.834Z,62
2017-09-05T08:45:49.270Z,58
2017-09-05T08:46:51.716Z,55
2017-09-05T08:47:54.150Z,54
2017-09-05T08:48:56.590Z,57
2017-09-05T08:49:59.024Z,58
2017-09-05T08:51:01.462Z,57
2017-09-05T08:52:03.890Z,54
2017-09-05T08:53:06.335Z,55
2017-09-05T08:54:08.769Z,54
2017-09-05T08:55:11.216Z,58
2017-09-05T08:56:13.657Z,54
2017-09-05T08:57:16.102Z,53
2017-09-05T08:58:18.907Z,55
2017-09-05T08:59:21.348Z,54
2017-09-05T09:00:23.781Z,52
2017-09-05T09:01:26.227Z,54
2017-09-05T09:02:28.668Z,55
2017-09-05T09:03:31.109Z,60
2017-09-05T09:04:33.551Z,63
2017-09-05T09:05:35.993Z,62
2017-09-05T09:06:38.820Z,63
2017-09-05T09:07:41.266Z,58
2017-09-05T09:08:43.706Z,55
2017-09-05T09:09:46.158Z,54
2017-09-05T09:10:48.949Z,54
2017-09-05T09:11:51.392Z,56
2017-09-05T09:12:53.836Z,56
2017-09-05T09:13:56.278Z,59
2017-09-05T09:14:58.726Z,53
2017-09-05T09:16:01.173Z,51
2017-09-05T09:17:03.621Z,51
2017-09-05T09:18:06.059Z,49
2017-09-05T09:19:08.501Z,50
2017-09-05T09:20:10.957Z,53
2017-09-05T09:21:13.744Z,52
2017-09-05T09:22:16.188Z,59
2017-09-05T09:23:18.640Z,54
2017-09-05T09:24:21.505Z,57
2017-09-05T09:25:24.090Z,57
2017-09-05T09:26:26.535Z,58
2017-09-05T09:27:29.316Z,56
2017-09-05T09:28:31.763Z,54
2017-09-05T09:29:34.212Z,53
2017-09-05T09:30:36.997Z,57
2017-09-05T09:31:39.445Z,55
2017-09-05T09:32:41.904Z,52
2017-09-05T09:33:44.346Z,52
2017-09-05T09:34:46.799Z,50
2017-09-05T09:35:49.245Z,48
2017-09-05T09:36:51.694Z,46
2017-09-05T09:37:54.147Z,50
2017-09-05T09:38:56.605Z,48
2017-09-05T09:39:59.045Z,47
2017-09-05T09:41:01.503Z,48
2017-09-05T09:42:03.947Z,51
2017-09-05T09:43:06.395Z,52
2017-09-05T09:44:08.842Z,52
2017-09-05T09:45:11.649Z,48
2017-09-05T09:46:14.097Z,45
2017-09-05T09:47:16.548Z,45
2017-09-05T09:48:18.995Z,45
2017-09-05T09:49:21.442Z,45
2017-09-05T09:50:23.890Z,45
2017-09-05T09:51:26.334Z,45
2017-09-05T09:52:28.779Z,47
2017-09-05T09:53:31.244Z,45
2017-09-05T09:54:33.698Z,46
2017-09-05T09:55:36.142Z,49
2017-09-05T09:56:38.585Z,48
2017-09-05T09:57:41.034Z,48
2017-09-05T09:58:43.480Z,50
2017-09-05T09:59:45.932Z,51
2017-09-05T10:00:48.388Z,52
2017-09-05T10:01:50.830Z,53
2017-09-05T10:02:53.278Z,53
2017-09-05T10:03:55.729Z,54
2017-09-05T10:04:58.175Z,54
2017-09-05T10:06:00.611Z,54
2017-09-05T10:07:03.072Z,49
2017-09-05T10:08:05.507Z,50
2017-09-05T10:09:07.957Z,46
2017-09-05T10:10:10.408Z,45
2017-09-05T10:11:12.860Z,47
2017-09-05T10:12:16.019Z,50
2017-09-05T10:13:18.811Z,51
2017-09-05T10:14:21.253Z,52
2017-09-05T10:15:23.708Z,50
2017-09-05T10:16:26.149Z,51
2017-09-05T10:17:28.597Z,47
2017-09-05T10:18:31.382Z,47
2017-09-05T10:19:33.834Z,49
2017-09-05T10:20:36.283Z,50
2017-09-05T10:21:38.734Z,50
2017-09-05T10:22:41.518Z,49
2017-09-05T10:23:43.963Z,50
2017-09-05T10:24:46.413Z,49
2017-09-05T10:25:48.860Z,47
2017-09-05T10:26:51.305Z,47
2017-09-05T10:27:54.093Z,46
2017-09-05T10:28:56.547Z,48
2017-09-05T10:29:58.992Z,49
2017-09-05T10:31:01.434Z,49
2017-09-05T10:32:04.238Z,48
2017-09-05T10:33:06.688Z,50
2017-09-05T10:34:09.134Z,48
2017-09-05T10:35:11.583Z,45
2017-09-05T10:36:14.035Z,46
2017-09-05T10:37:16.480Z,47
2017-09-05T10:38:18.941Z,44
2017-09-05T10:39:21.385Z,43
2017-09-05T10:40:23.830Z,43
2017-09-05T10:41:26.286Z,44
2017-09-05T10:42:28.736Z,43
2017-09-05T10:43:31.522Z,44
2017-09-05T10:44:33.977Z,45
2017-09-05T10:45:36.427Z,48
2017-09-05T10:46:38.880Z,47
2017-09-05T10:47:41.328Z,49
2017-09-05T10:48:43.767Z,48
2017-09-05T10:49:46.217Z,48
2017-09-05T10:50:48.675Z,49
2017-09-05T10:51:51.117Z,51
2017-09-05T10:52:53.567Z,51
2017-09-05T10:53:56.023Z,51
2017-09-05T10:54:58.473Z,52
2017-09-05T10:56:00.924Z,50
2017-09-05T10:57:03.721Z,52
2017-09-05T10:58:06.157Z,45
2017-09-05T10:59:08.961Z,43
2017-09-05T11:00:11.407Z,44
2017-09-05T11:01:13.859Z,47
2017-09-05T11:02:16.315Z,48
2017-09-05T11:03:19.116Z,48
2017-09-05T11:04:21.560Z,48
2017-09-05T11:05:24.010Z,48
2017-09-05T11:06:26.452Z,48
2017-09-05T11:07:28.911Z,46
2017-09-05T11:08:31.362Z,48
2017-09-05T11:09:33.812Z,48
2017-09-05T11:10:36.256Z,47
2017-09-05T11:11:38.716Z,45
2017-09-05T11:12:41.169Z,47
2017-09-05T11:13:43.622Z,49
2017-09-05T11:14:46.065Z,45
2017-09-05T11:15:48.516Z,43
2017-09-05T11:16:50.969Z,44
2017-09-05T11:17:53.423Z,43
2017-09-05T11:18:55.870Z,46
2017-09-05T11:19:58.326Z,45
2017-09-05T11:21:00.778Z,47
2017-09-05T11:22:03.576Z,47
2017-09-05T11:23:06.016Z,49
2017-09-05T11:24:08.462Z,50
2017-09-05T11:25:10.910Z,48
2017-09-05T11:26:13.366Z,48
2017-09-05T11:27:15.866Z,47
2017-09-05T11:28:18.315Z,48
2017-09-05T11:29:20.775Z,49
2017-09-05T11:30:23.220Z,50
2017-09-05T11:31:25.662Z,46
2017-09-05T11:32:28.113Z,48
2017-09-05T11:33:30.558Z,44
2017-09-05T11:34:33.017Z,41
2017-09-05T11:35:35.471Z,46
2017-09-05T11:36:37.926Z,45
2017-09-05T11:37:40.377Z,44
2017-09-05T11:38:42.843Z,47
2017-09-05T11:39:45.288Z,48
2017-09-05T11:40:47.738Z,44
2017-09-05T11:41:50.183Z,44
2017-09-05T11:42:52.638Z,45
2017-09-05T11:43:55.092Z,48
2017-09-05T11:44:57.543Z,45
2017-09-05T11:45:59.981Z,44
2017-09-05T11:47:02.440Z,48
2017-09-05T11:48:04.886Z,44
2017-09-05T11:49:07.342Z,46
2017-09-05T11:50:09.800Z,48
2017-09-05T11:51:12.245Z,47
2017-09-05T11:52:14.707Z,41
2017-09-05T11:53:17.161Z,41
2017-09-05T11:54:19.602Z,43
2017-09-05T11:55:22.055Z,42
2017-09-05T11:56:24.504Z,41
2017-09-05T11:57:26.955Z,42
2017-09-05T11:58:29.401Z,41
2017-09-05T11:59:31.851Z,44
2017-09-05T12:00:34.303Z,44
2017-09-05T12:01:36.749Z,42
2017-09-05T12:02:39.196Z,42
2017-09-05T12:03:41.647Z,43
2017-09-05T12:04:44.137Z,44
2017-09-05T12:05:46.579Z,40
2017-09-05T12:06:49.039Z,40
2017-09-05T12:07:51.844Z,43
2017-09-05T12:08:54.294Z,42
2017-09-05T12:09:57.082Z,42
2017-09-05T12:10:59.535Z,41
2017-09-05T12:12:01.976Z,40
2017-09-05T12:13:04.435Z,41
2017-09-05T12:14:06.883Z,44
2017-09-05T12:15:09.334Z,44
2017-09-05T12:16:11.784Z,41
2017-09-05T12:17:14.232Z,40
2017-09-05T12:18:16.680Z,40
2017-09-05T12:19:19.141Z,38
2017-09-05T12:20:21.586Z,39
2017-09-05T12:21:24.046Z,39
2017-09-05T12:22:26.494Z,43
2017-09-05T12:23:29.627Z,45
2017-09-05T12:24:32.083Z,44
2017-09-05T12:25:34.537Z,43
2017-09-05T12:26:36.978Z,40
2017-09-05T12:27:39.428Z,42
2017-09-05T12:28:42.230Z,42
2017-09-05T12:29:44.685Z,46
2017-09-05T12:30:47.130Z,45
2017-09-05T12:31:49.923Z,40
2017-09-05T12:32:52.380Z,41
2017-09-05T12:33:54.829Z,39
2017-09-05T12:34:57.281Z,40
2017-09-05T12:35:59.729Z,44
2017-09-05T12:37:02.168Z,43
2017-09-05T12:38:04.625Z,41
2017-09-05T12:39:07.070Z,45
2017-09-05T12:40:09.513Z,48
2017-09-05T12:41:11.963Z,44
2017-09-05T12:42:14.414Z,48
2017-09-05T12:43:16.869Z,46
2017-09-05T12:44:19.333Z,46
2017-09-05T12:45:21.776Z,49
2017-09-05T12:46:24.223Z,52
2017-09-05T12:47:26.674Z,50
2017-09-05T12:48:29.127Z,50
2017-09-05T12:49:31.578Z,47
2017-09-05T12:50:34.030Z,48
2017-09-05T12:51:36.473Z,49
2017-09-05T12:52:38.922Z,43
2017-09-05T12:53:41.376Z,44
2017-09-05T12:54:43.818Z,45
2017-09-05T12:55:46.265Z,48
2017-09-05T12:56:48.717Z,47
2017-09-05T12:57:51.161Z,45
2017-09-05T12:58:53.612Z,46
2017-09-05T12:59:56.397Z,47
2017-09-05T13:00:58.849Z,47
2017-09-05T13:02:01.295Z,43
2017-09-05T13:03:03.751Z,44
2017-09-05T13:04:06.540Z,43
2017-09-05T13:05:08.993Z,48
2017-09-05T13:06:11.442Z,51
2017-09-05T13:07:13.888Z,50
2017-09-05T13:08:16.333Z,43
2017-09-05T13:09:18.782Z,40
2017-09-05T13:10:21.906Z,40
2017-09-05T13:11:24.356Z,38
2017-09-05T13:12:26.803Z,42
2017-09-05T13:13:29.601Z,39
2017-09-05T13:14:32.044Z,37
2017-09-05T13:15:34.499Z,41
2017-09-05T13:16:36.942Z,40
2017-09-05T13:17:39.400Z,44
2017-09-05T13:18:41.849Z,45
2017-09-05T13:19:44.652Z,43
2017-09-05T13:20:47.097Z,40
2017-09-05T13:21:49.544Z,39
2017-09-05T13:22:51.994Z,41
2017-09-05T13:23:54.445Z,39
2017-09-05T13:24:56.913Z,41
2017-09-05T13:25:59.348Z,46
2017-09-05T13:27:01.791Z,47
2017-09-05T13:28:04.227Z,43
2017-09-05T13:29:07.042Z,47
2017-09-05T13:30:09.843Z,48
2017-09-05T13:31:12.280Z,47
2017-09-05T13:32:14.729Z,48
2017-09-05T13:33:17.171Z,50
2017-09-05T13:34:19.616Z,48
2017-09-05T13:35:22.073Z,45
2017-09-05T13:36:24.521Z,49
2017-09-05T13:37:26.955Z,49
2017-09-05T13:38:29.746Z,44
2017-09-05T13:39:32.201Z,41
2017-09-05T13:40:34.988Z,42
2017-09-05T13:41:37.447Z,41
2017-09-05T13:42:39.886Z,44
2017-09-05T13:43:42.668Z,47
2017-09-05T13:44:45.126Z,48
2017-09-05T13:45:47.562Z,47
2017-09-05T13:46:50.004Z,45
2017-09-05T13:47:52.457Z,48
2017-09-05T13:48:54.908Z,49
2017-09-05T13:49:57.363Z,49
2017-09-05T13:50:59.810Z,46
2017-09-05T13:52:02.584Z,45
2017-09-05T13:53:05.035Z,40
2017-09-05T13:54:07.484Z,44
2017-09-05T13:55:09.926Z,42
2017-09-05T13:56:12.370Z,42
2017-09-05T13:57:14.813Z,40
2017-09-05T13:58:17.266Z,43
2017-09-05T13:59:19.712Z,47
2017-09-05T14:00:22.160Z,48
2017-09-05T14:01:24.955Z,43
2017-09-05T14:02:27.406Z,40
2017-09-05T14:03:29.848Z,39
2017-09-05T14:04:32.297Z,39
2017-09-05T14:05:34.745Z,39
2017-09-05T14:06:37.541Z,40
2017-09-05T14:07:39.987Z,43
2017-09-05T14:08:42.467Z,45
2017-09-05T14:09:45.263Z,40
2017-09-05T14:10:47.718Z,39
2017-09-05T14:11:50.159Z,38
2017-09-05T14:12:52.609Z,47
2017-09-05T14:13:55.064Z,43
2017-09-05T14:14:57.510Z,40
2017-09-05T14:16:00.303Z,44
2017-09-05T14:17:02.757Z,45
2017-09-05T14:18:05.198Z,42
2017-09-05T14:19:07.649Z,39
2017-09-05T14:20:10.101Z,39
2017-09-05T14:21:12.549Z,42
2017-09-05T14:22:15.000Z,43
2017-09-05T14:23:17.777Z,43
2017-09-05T14:24:20.223Z,44
2017-09-05T14:25:22.683Z,47
2017-09-05T14:26:25.136Z,42
2017-09-05T14:27:27.576Z,41
2017-09-05T14:28:30.019Z,39
2017-09-05T14:29:32.466Z,44
2017-09-05T14:30:34.914Z,43
2017-09-05T14:31:37.358Z,42
2017-09-05T14:32:39.807Z,48
2017-09-05T14:33:42.245Z,48
2017-09-05T14:34:44.701Z,48
2017-09-05T14:35:47.146Z,48
2017-09-05T14:36:49.598Z,48
2017-09-05T14:37:52.042Z,45
2017-09-05T14:38:54.841Z,47
2017-09-05T14:39:57.285Z,51
2017-09-05T14:40:59.734Z,52
2017-09-05T14:42:02.181Z,43
2017-09-05T14:43:04.624Z,41
2017-09-05T14:44:07.090Z,40
2017-09-05T14:45:09.534Z,40
2017-09-05T14:46:11.977Z,41
2017-09-05T14:47:14.424Z,41
2017-09-05T14:48:16.867Z,41
2017-09-05T14:49:19.327Z,42
2017-09-05T14:50:21.772Z,41